Time;durP1;ratioP1;P1;durP2;ratioP2;P2;SDS_P1;SDS_P2;PMS_P1;PMS_P2;Temp;Humidity;BMP_temperature;BMP_pressure;BME280_temperature;BME280_humidity;BME280_pressure;Samples;Min_cycle;Max_cycle;Signal;HPM_P1;HPM_P2
2022/01/07 00:00:46;;;;;;;32.38;13.48;;;1.60;99.90;;;;;;5071416;28;20028;-44
2022/01/07 00:03:12;;;;;;;24.40;11.50;;;1.60;99.90;;;;;;5071241;28;20074;-44
2022/01/07 00:05:38;;;;;;;22.83;11.15;;;1.60;99.90;;;;;;5071737;28;20435;-43
2022/01/07 00:08:04;;;;;;;26.00;11.30;;;1.60;99.90;;;;;;5071347;28;20025;-49
2022/01/07 00:10:29;;;;;;;21.67;11.23;;;1.60;99.90;;;;;;5071235;28;20020;-45
2022/01/07 00:12:55;;;;;;;23.95;11.75;;;1.60;99.90;;;;;;5070729;28;20095;-56
2022/01/07 00:15:21;;;;;;;20.08;11.25;;;1.50;99.90;;;;;;5056060;28;20020;-48
2022/01/07 00:17:47;;;;;;;25.85;11.55;;;1.60;99.90;;;;;;5074312;28;20469;-48
2022/01/07 00:20:14;;;;;;;28.55;11.93;;;1.60;99.90;;;;;;5074631;28;20031;-48
2022/01/07 00:22:41;;;;;;;20.67;11.13;;;1.60;99.90;;;;;;5074489;28;20030;-45
2022/01/07 00:25:08;;;;;;;54.08;23.85;;;1.70;99.90;;;;;;5073884;28;20395;-47
2022/01/07 00:27:34;;;;;;;44.60;20.80;;;1.60;99.90;;;;;;5074026;28;20020;-48
2022/01/07 00:30:00;;;;;;;26.30;11.63;;;1.60;99.90;;;;;;5072772;28;20033;-47
2022/01/07 00:32:25;;;;;;;18.20;11.90;;;1.60;99.90;;;;;;5073497;28;20032;-44
2022/01/07 00:34:51;;;;;;;26.30;11.70;;;1.70;99.90;;;;;;5073383;28;20044;-47
2022/01/07 00:37:17;;;;;;;31.40;12.90;;;1.70;99.90;;;;;;5073502;28;20020;-43
2022/01/07 00:39:43;;;;;;;29.75;12.13;;;1.70;99.90;;;;;;5072768;28;20103;-49
2022/01/07 00:42:09;;;;;;;25.42;12.55;;;1.60;99.90;;;;;;5074471;28;20392;-45
2022/01/07 00:44:34;;;;;;;31.35;13.95;;;1.60;99.90;;;;;;5074598;28;20021;-45
2022/01/07 00:47:00;;;;;;;23.15;12.27;;;1.60;99.90;;;;;;5074087;28;20052;-46
2022/01/07 00:49:26;;;;;;;44.17;15.13;;;1.60;99.90;;;;;;5073107;28;20553;-47
2022/01/07 00:51:51;;;;;;;33.45;13.73;;;1.60;99.90;;;;;;5073492;28;20024;-45
2022/01/07 00:54:18;;;;;;;32.80;15.15;;;1.70;99.90;;;;;;5072953;28;20025;-44
2022/01/07 00:56:44;;;;;;;27.50;12.90;;;1.70;99.90;;;;;;5073252;28;20032;-45
2022/01/07 00:59:10;;;;;;;23.90;12.68;;;1.70;99.90;;;;;;5054609;28;20032;-44
2022/01/07 01:01:36;;;;;;;28.27;13.30;;;1.60;99.90;;;;;;5073210;28;20503;-43
2022/01/07 01:04:03;;;;;;;25.17;13.75;;;1.60;99.90;;;;;;5055667;28;20464;-47
2022/01/07 01:08:57;;;;;;;24.15;13.50;;;1.60;99.90;;;;;;5071590;22;20048;-44
2022/01/07 01:11:23;;;;;;;31.20;12.80;;;1.50;99.90;;;;;;5034448;28;20028;-48
2022/01/07 01:13:49;;;;;;;31.85;13.02;;;1.40;99.90;;;;;;5052815;28;20029;-51
2022/01/07 01:16:14;;;;;;;28.45;14.45;;;1.40;99.90;;;;;;5052638;28;20039;-50
2022/01/07 01:18:40;;;;;;;28.40;13.00;;;1.40;99.90;;;;;;5052914;28;20025;-51
2022/01/07 01:21:05;;;;;;;24.33;13.98;;;1.40;99.90;;;;;;5052459;28;20047;-49
2022/01/07 01:23:32;;;;;;;25.50;14.20;;;1.30;99.90;;;;;;5053675;28;20025;-47
2022/01/07 01:25:58;;;;;;;30.30;12.77;;;1.30;99.90;;;;;;5034334;28;20031;-49
2022/01/07 01:28:23;;;;;;;30.27;13.23;;;1.30;99.90;;;;;;5052893;28;20512;-47
2022/01/07 01:30:49;;;;;;;30.80;14.02;;;1.30;99.90;;;;;;5053657;28;20073;-48
2022/01/07 01:33:14;;;;;;;33.50;13.13;;;1.30;99.90;;;;;;5053807;28;20070;-47
2022/01/07 01:35:41;;;;;;;25.40;13.95;;;1.30;99.90;;;;;;5052301;28;20057;-52
2022/01/07 01:38:06;;;;;;;35.15;15.18;;;1.30;99.90;;;;;;5052831;28;20052;-50
2022/01/07 01:40:32;;;;;;;54.28;24.65;;;1.30;99.90;;;;;;5051904;28;20079;-47
2022/01/07 01:42:58;;;;;;;28.25;15.48;;;1.30;99.90;;;;;;5051930;28;20125;-47
2022/01/07 01:45:24;;;;;;;29.58;14.40;;;1.30;99.90;;;;;;5051989;28;20104;-46
2022/01/07 01:47:55;;;;;;;32.45;12.73;;;1.30;99.90;;;;;;5034427;28;20411;-47
2022/01/07 01:50:22;;;;;;;31.58;14.98;;;1.30;99.90;;;;;;5033824;28;20025;-47
2022/01/07 01:52:50;;;;;;;29.60;14.07;;;1.30;99.90;;;;;;5034110;28;20397;-47
2022/01/07 01:55:17;;;;;;;30.08;14.68;;;1.30;99.90;;;;;;5034553;28;20330;-45
2022/01/07 01:57:44;;;;;;;20.23;12.38;;;1.40;99.90;;;;;;5051900;28;20047;-46
2022/01/07 02:00:10;;;;;;;32.28;15.65;;;1.40;99.90;;;;;;5051446;28;20432;-49
2022/01/07 02:02:36;;;;;;;24.35;12.32;;;1.50;99.90;;;;;;5051806;28;20021;-46
2022/01/07 02:05:03;;;;;;;26.13;12.05;;;1.50;99.90;;;;;;5033816;28;20052;-48
2022/01/07 02:07:28;;;;;;;20.13;11.52;;;1.60;99.90;;;;;;5051598;28;20029;-46
2022/01/07 02:09:55;;;;;;;25.15;14.23;;;1.60;99.90;;;;;;5033241;28;20025;-46
2022/01/07 02:12:21;;;;;;;23.80;13.00;;;1.60;99.90;;;;;;5051915;28;20033;-49
2022/01/07 02:14:51;;;;;;;38.58;13.02;;;1.60;99.90;;;;;;5051780;28;20030;-48
2022/01/07 02:17:17;;;;;;;35.35;14.40;;;1.50;99.90;;;;;;5051797;28;20511;-45
2022/01/07 02:19:42;;;;;;;21.73;13.00;;;1.50;99.90;;;;;;5051277;28;20025;-48
2022/01/07 02:22:08;;;;;;;26.58;12.80;;;1.40;99.90;;;;;;5051393;28;20021;-49
2022/01/07 02:24:35;;;;;;;23.73;13.18;;;1.30;99.90;;;;;;5051425;28;20021;-48
2022/01/07 02:27:01;;;;;;;28.35;13.23;;;1.20;99.90;;;;;;5033265;28;20044;-49
2022/01/07 02:29:27;;;;;;;28.98;12.40;;;1.10;99.90;;;;;;5050797;28;20151;-48
2022/01/07 02:31:53;;;;;;;28.85;13.77;;;1.10;99.90;;;;;;5051278;28;20481;-47
2022/01/07 02:34:19;;;;;;;28.60;13.15;;;1.20;99.90;;;;;;5051412;28;20049;-47
2022/01/07 02:36:44;;;;;;;30.17;13.30;;;1.20;99.90;;;;;;5051084;28;20032;-48
2022/01/07 02:39:10;;;;;;;28.75;13.10;;;1.20;99.90;;;;;;5050972;28;20090;-46
2022/01/07 02:41:36;;;;;;;21.95;12.95;;;1.40;99.90;;;;;;5051085;28;20069;-46
2022/01/07 02:44:01;;;;;;;28.55;14.20;;;1.40;99.90;;;;;;5051234;28;20037;-45
2022/01/07 02:46:27;;;;;;;24.00;14.23;;;1.40;99.90;;;;;;5051071;28;20449;-47
2022/01/07 02:48:52;;;;;;;26.10;12.73;;;1.40;99.90;;;;;;5051386;28;20018;-46
2022/01/07 02:51:18;;;;;;;26.98;13.95;;;1.40;99.90;;;;;;5051125;28;20099;-50
2022/01/07 02:53:43;;;;;;;29.63;13.30;;;1.30;99.90;;;;;;5033864;28;20044;-46
2022/01/07 02:56:11;;;;;;;29.83;13.40;;;1.30;99.90;;;;;;5052329;28;20064;-48
2022/01/07 02:58:37;;;;;;;26.25;13.68;;;1.20;99.90;;;;;;5053029;28;20112;-45
2022/01/07 03:01:03;;;;;;;22.73;13.07;;;1.20;99.90;;;;;;5052876;28;20063;-47
2022/01/07 03:03:28;;;;;;;20.15;13.00;;;1.30;99.90;;;;;;5052762;28;20033;-47
2022/01/07 03:05:54;;;;;;;24.73;11.95;;;1.30;99.90;;;;;;5051003;28;20388;-49
2022/01/07 03:08:20;;;;;;;20.45;13.10;;;1.30;99.90;;;;;;5050866;28;20060;-45
2022/01/07 03:10:45;;;;;;;28.23;12.55;;;1.20;99.90;;;;;;5050681;28;20044;-48
2022/01/07 03:13:11;;;;;;;23.48;12.18;;;1.20;99.90;;;;;;5051073;28;20111;-46
2022/01/07 03:15:38;;;;;;;25.90;13.50;;;1.20;99.90;;;;;;5050930;28;20021;-48
2022/01/07 03:18:08;;;;;;;24.27;12.73;;;1.20;99.90;;;;;;5051286;28;20547;-44
2022/01/07 03:20:42;;;;;;;25.55;13.10;;;1.30;99.90;;;;;;5050705;28;20033;-47
2022/01/07 03:23:11;;;;;;;24.52;13.43;;;1.40;99.90;;;;;;5033130;28;20021;-46
2022/01/07 03:25:37;;;;;;;25.95;13.02;;;1.40;99.90;;;;;;5033372;28;20086;-47
2022/01/07 03:28:03;;;;;;;22.00;12.82;;;1.40;99.90;;;;;;5051258;28;20025;-48
2022/01/07 03:30:29;;;;;;;30.20;12.80;;;1.40;99.90;;;;;;5050811;28;20018;-47
2022/01/07 03:33:41;;;;;;;32.70;13.88;;;1.40;99.90;;;;;;5050986;28;20032;-51
2022/01/07 03:36:07;;;;;;;24.67;12.13;;;1.50;99.90;;;;;;5048719;28;20075;-47
2022/01/07 03:38:32;;;;;;;23.38;12.55;;;1.50;99.90;;;;;;5050845;28;20128;-48
2022/01/07 03:40:58;;;;;;;19.10;12.60;;;1.50;99.90;;;;;;5050528;28;20095;-49
2022/01/07 03:43:24;;;;;;;19.20;11.85;;;1.50;99.90;;;;;;5051102;28;20032;-49
2022/01/07 03:45:50;;;;;;;27.55;13.30;;;1.50;99.90;;;;;;5033067;28;20025;-46
2022/01/07 03:48:16;;;;;;;26.83;11.85;;;1.50;99.90;;;;;;5050808;28;20059;-47
2022/01/07 03:50:41;;;;;;;19.80;11.63;;;1.50;99.90;;;;;;5053855;28;20013;-48
2022/01/07 03:53:07;;;;;;;22.55;14.25;;;1.50;99.90;;;;;;5054412;28;20025;-48
2022/01/07 03:55:33;;;;;;;27.20;13.10;;;1.50;99.90;;;;;;5054589;28;20060;-48
2022/01/07 03:58:00;;;;;;;30.13;13.20;;;1.50;99.90;;;;;;5054368;28;20074;-48
2022/01/07 04:00:39;;;;;;;26.13;13.88;;;1.50;99.90;;;;;;5054357;28;20052;-51
2022/01/07 04:03:11;;;;;;;26.23;14.60;;;1.50;99.90;;;;;;5054015;28;20041;-50
2022/01/07 04:05:37;;;;;;;24.30;13.70;;;1.50;99.90;;;;;;5053934;28;20102;-51
2022/01/07 04:08:04;;;;;;;22.25;13.40;;;1.50;99.90;;;;;;5053778;28;20033;-48
2022/01/07 04:10:30;;;;;;;29.60;13.82;;;1.50;99.90;;;;;;5053905;28;20021;-47
2022/01/07 04:12:55;;;;;;;25.25;13.93;;;1.50;99.90;;;;;;5054009;28;20036;-46
2022/01/07 04:15:23;;;;;;;33.13;12.85;;;1.40;99.90;;;;;;5054021;28;20028;-46
2022/01/07 04:17:50;;;;;;;26.00;15.00;;;1.40;99.90;;;;;;5053646;28;20489;-47
2022/01/07 04:20:19;;;;;;;30.23;14.13;;;1.30;99.90;;;;;;5053605;28;20037;-49
2022/01/07 04:22:44;;;;;;;29.13;13.75;;;1.40;99.90;;;;;;5053652;28;20039;-48
2022/01/07 04:25:17;;;;;;;28.38;13.68;;;1.40;99.90;;;;;;5053706;28;20044;-51
2022/01/07 04:27:47;;;;;;;34.10;13.85;;;1.50;99.90;;;;;;5053596;28;20021;-47
2022/01/07 04:30:14;;;;;;;32.33;14.60;;;1.40;99.90;;;;;;5052778;28;20473;-45
2022/01/07 04:32:42;;;;;;;35.00;15.90;;;1.50;99.90;;;;;;5053461;28;20067;-46
2022/01/07 04:35:08;;;;;;;32.17;15.05;;;1.40;99.90;;;;;;5053474;28;20385;-50
2022/01/07 04:37:33;;;;;;;36.35;16.27;;;1.40;99.90;;;;;;5053272;28;20032;-47
2022/01/07 04:39:59;;;;;;;25.15;15.40;;;1.40;99.90;;;;;;5052987;28;20477;-47
2022/01/07 04:42:24;;;;;;;31.27;16.92;;;1.40;99.90;;;;;;5053325;28;20044;-45
2022/01/07 04:44:50;;;;;;;26.40;15.65;;;1.40;99.90;;;;;;5035240;28;20465;-45
2022/01/07 04:47:15;;;;;;;29.63;15.95;;;1.40;99.90;;;;;;5053120;28;20104;-44
2022/01/07 04:49:41;;;;;;;26.88;16.33;;;1.40;99.90;;;;;;5053137;28;20512;-47
2022/01/07 04:52:07;;;;;;;32.90;16.13;;;1.40;99.90;;;;;;5035190;28;20025;-46
2022/01/07 04:54:33;;;;;;;26.30;15.43;;;1.30;99.90;;;;;;5053510;28;20025;-50
2022/01/07 04:56:59;;;;;;;34.38;18.20;;;1.30;99.90;;;;;;5052929;28;20377;-46
2022/01/07 04:59:25;;;;;;;28.15;15.63;;;1.20;99.90;;;;;;5034756;28;20032;-46
2022/01/07 05:01:51;;;;;;;28.95;15.55;;;1.20;99.90;;;;;;5051633;28;20082;-50
2022/01/07 05:04:16;;;;;;;30.20;14.90;;;1.10;99.90;;;;;;5053001;28;20308;-47
2022/01/07 05:06:45;;;;;;;36.08;18.35;;;1.10;99.90;;;;;;5052705;28;20032;-46
2022/01/07 05:09:20;;;;;;;35.05;15.98;;;1.10;99.90;;;;;;5052699;28;20048;-46
2022/01/07 05:11:47;;;;;;;29.17;17.00;;;1.10;99.90;;;;;;5052951;28;20060;-47
2022/01/07 05:14:14;;;;;;;29.42;16.27;;;1.10;99.90;;;;;;5052759;28;20394;-48
2022/01/07 05:16:40;;;;;;;28.92;15.98;;;1.10;99.90;;;;;;5052704;28;20086;-46
2022/01/07 05:19:06;;;;;;;27.30;16.15;;;1.20;99.90;;;;;;5034445;28;20120;-48
2022/01/07 05:21:32;;;;;;;24.00;16.88;;;1.30;99.90;;;;;;5052638;28;20029;-45
2022/01/07 05:23:58;;;;;;;26.40;16.27;;;1.40;99.90;;;;;;5052421;28;20025;-50
2022/01/07 05:26:23;;;;;;;27.75;16.27;;;1.40;99.90;;;;;;5052220;28;20086;-47
2022/01/07 05:28:50;;;;;;;34.97;15.05;;;1.40;99.90;;;;;;5051904;28;20504;-47
2022/01/07 05:31:17;;;;;;;30.27;16.30;;;1.30;99.90;;;;;;5052110;28;20025;-47
2022/01/07 05:33:42;;;;;;;30.23;15.90;;;1.30;99.90;;;;;;5052163;28;20099;-47
2022/01/07 05:36:08;;;;;;;26.50;14.57;;;1.30;99.90;;;;;;5052300;28;20465;-46
2022/01/07 05:38:34;;;;;;;29.95;15.05;;;1.30;99.90;;;;;;5052010;28;20025;-50
2022/01/07 05:41:00;;;;;;;29.75;15.45;;;1.40;99.90;;;;;;5034142;28;20029;-47
2022/01/07 05:43:28;;;;;;;30.33;15.23;;;1.30;99.90;;;;;;5052007;28;20492;-50
2022/01/07 05:45:54;;;;;;;25.27;13.80;;;1.40;99.90;;;;;;5052073;28;20025;-46
2022/01/07 05:48:19;;;;;;;30.35;15.35;;;1.40;99.90;;;;;;5051859;28;20511;-47
2022/01/07 05:50:45;;;;;;;24.85;14.20;;;1.40;99.90;;;;;;5033846;28;20492;-48
2022/01/07 05:53:10;;;;;;;23.33;12.90;;;1.40;99.90;;;;;;5051731;28;20424;-50
2022/01/07 05:55:36;;;;;;;25.38;13.98;;;1.40;99.90;;;;;;5052044;28;20040;-46
2022/01/07 05:58:02;;;;;;;28.63;13.98;;;1.30;99.90;;;;;;5051916;28;20523;-48
2022/01/07 06:00:27;;;;;;;26.80;13.90;;;1.50;99.90;;;;;;5051580;28;20051;-48
2022/01/07 06:02:53;;;;;;;26.60;15.02;;;1.50;99.90;;;;;;5051661;28;20489;-47
2022/01/07 06:05:18;;;;;;;21.25;13.38;;;1.50;99.90;;;;;;5051645;28;20029;-49
2022/01/07 06:07:44;;;;;;;21.92;14.13;;;1.50;99.90;;;;;;5033487;28;20029;-50
2022/01/07 06:10:09;;;;;;;29.13;14.85;;;1.50;99.90;;;;;;5033445;28;20389;-48
2022/01/07 06:12:35;;;;;;;34.58;13.93;;;1.60;99.90;;;;;;5051257;28;20033;-46
2022/01/07 06:15:01;;;;;;;32.95;14.02;;;1.50;99.90;;;;;;5052045;28;20411;-46
2022/01/07 06:17:26;;;;;;;28.85;14.32;;;1.50;99.90;;;;;;5051731;28;20025;-49
2022/01/07 06:19:52;;;;;;;22.10;13.55;;;1.60;99.90;;;;;;5051345;28;20025;-46
2022/01/07 06:22:18;;;;;;;24.92;12.57;;;1.60;99.90;;;;;;5051835;28;20032;-45
2022/01/07 06:24:44;;;;;;;24.42;13.30;;;1.60;99.90;;;;;;5052895;28;20021;-46
2022/01/07 06:27:10;;;;;;;25.27;13.90;;;1.60;99.90;;;;;;5052310;28;20489;-45
2022/01/07 06:29:37;;;;;;;23.83;13.98;;;1.50;99.90;;;;;;5050439;28;20036;-46
2022/01/07 06:32:03;;;;;;;20.27;12.80;;;1.60;99.90;;;;;;5051307;28;20017;-45
2022/01/07 06:34:29;;;;;;;21.35;13.13;;;1.60;99.90;;;;;;5033206;28;20450;-47
2022/01/07 06:36:55;;;;;;;25.48;14.38;;;1.60;99.90;;;;;;5051223;28;20033;-46
2022/01/07 06:39:22;;;;;;;25.70;13.98;;;1.60;99.90;;;;;;5050857;28;20048;-46
2022/01/07 06:41:48;;;;;;;24.13;12.55;;;1.60;99.90;;;;;;5033254;28;20557;-46
2022/01/07 06:44:14;;;;;;;24.52;13.55;;;1.60;99.90;;;;;;5051131;28;20025;-45
2022/01/07 06:46:40;;;;;;;22.45;14.07;;;1.70;99.90;;;;;;5050890;28;20449;-47
2022/01/07 06:49:06;;;;;;;21.17;13.43;;;1.70;99.90;;;;;;5050797;28;20104;-47
2022/01/07 06:51:32;;;;;;;30.58;14.32;;;1.80;99.90;;;;;;5033283;28;20055;-47
2022/01/07 06:53:58;;;;;;;25.25;13.15;;;1.70;99.90;;;;;;5051040;28;20104;-45
2022/01/07 06:56:24;;;;;;;23.75;13.93;;;1.70;99.90;;;;;;5051090;28;20056;-46
2022/01/07 06:58:50;;;;;;;26.95;13.65;;;1.70;99.90;;;;;;5051060;28;20029;-45
2022/01/07 07:01:16;;;;;;;23.70;13.60;;;1.70;99.90;;;;;;5051115;28;20032;-44
2022/01/07 07:03:41;;;;;;;19.17;13.30;;;1.70;99.90;;;;;;5051088;28;20059;-47
2022/01/07 07:06:07;;;;;;;19.27;11.93;;;1.70;99.90;;;;;;5051099;28;20029;-50
2022/01/07 07:08:33;;;;;;;28.50;13.98;;;1.70;99.90;;;;;;5077143;22;20349;-49
2022/01/07 07:10:58;;;;;;;30.40;14.30;;;1.70;99.90;;;;;;5090179;28;20043;-49
2022/01/07 07:13:24;;;;;;;34.58;13.45;;;1.80;99.90;;;;;;5091876;28;20449;-46
2022/01/07 07:15:50;;;;;;;21.88;14.38;;;1.80;99.90;;;;;;5091057;28;20057;-47
2022/01/07 07:18:17;;;;;;;21.77;12.25;;;1.90;99.90;;;;;;5091001;28;20024;-46
2022/01/07 07:20:43;;;;;;;30.40;14.75;;;1.90;99.90;;;;;;5090724;28;20502;-46
2022/01/07 07:23:08;;;;;;;29.30;13.52;;;1.90;99.90;;;;;;5091014;28;20102;-46
2022/01/07 07:25:34;;;;;;;25.75;15.27;;;1.90;99.90;;;;;;5094340;28;20032;-44
2022/01/07 07:27:59;;;;;;;26.02;13.80;;;1.80;99.90;;;;;;5095209;28;20020;-49
2022/01/07 07:30:32;;;;;;;27.55;14.15;;;1.90;99.90;;;;;;5094512;28;20024;-44
2022/01/07 07:33:07;;;;;;;23.65;13.93;;;1.80;99.90;;;;;;5095090;28;20069;-44
2022/01/07 07:38:16;;;;;;;21.75;13.80;;;1.70;99.90;;;;;;5094880;28;20031;-49
2022/01/07 07:40:42;;;;;;;23.70;13.45;;;1.70;99.90;;;;;;5094655;28;20036;-47
2022/01/07 07:43:08;;;;;;;32.42;14.25;;;1.60;99.90;;;;;;5095158;28;20035;-45
2022/01/07 07:45:33;;;;;;;28.48;14.45;;;1.70;99.90;;;;;;5094520;28;20051;-47
2022/01/07 07:47:59;;;;;;;23.25;14.02;;;1.70;99.90;;;;;;5095377;28;20024;-45
2022/01/07 07:50:24;;;;;;;31.33;15.80;;;1.70;99.90;;;;;;5094643;28;20476;-52
2022/01/07 07:52:50;;;;;;;26.17;15.02;;;1.60;99.90;;;;;;5094866;28;20082;-53
2022/01/07 07:55:15;;;;;;;27.65;16.58;;;1.70;99.90;;;;;;5094754;28;20509;-53
2022/01/07 07:57:41;;;;;;;25.55;15.25;;;1.70;99.90;;;;;;5095671;28;20048;-52
2022/01/07 08:00:07;;;;;;;34.95;18.23;;;1.60;99.90;;;;;;5076171;28;20031;-44
2022/01/07 08:02:34;;;;;;;30.48;16.13;;;1.70;99.90;;;;;;5094642;28;20036;-44
2022/01/07 08:04:59;;;;;;;27.98;16.15;;;1.70;99.90;;;;;;5094624;28;20156;-44
2022/01/07 08:07:25;;;;;;;26.35;17.10;;;1.70;99.90;;;;;;5094688;28;20024;-43
2022/01/07 08:09:52;;;;;;;29.50;17.20;;;1.60;99.90;;;;;;5093790;28;20043;-49
2022/01/07 08:12:22;;;;;;;24.55;15.55;;;1.70;99.90;;;;;;5094231;28;20020;-43
2022/01/07 08:17:32;;;;;;;28.17;15.98;;;1.60;99.90;;;;;;5094556;28;20055;-47
2022/01/07 08:19:58;;;;;;;30.05;16.15;;;1.60;99.90;;;;;;5094143;28;20020;-44
2022/01/07 08:22:23;;;;;;;29.60;16.13;;;1.60;99.90;;;;;;5094450;28;20034;-42
2022/01/07 08:24:49;;;;;;;28.83;17.02;;;1.60;99.90;;;;;;5094625;28;20034;-44
2022/01/07 08:27:14;;;;;;;26.10;15.85;;;1.60;99.90;;;;;;5094427;28;20048;-47
2022/01/07 08:29:42;;;;;;;24.27;16.33;;;1.50;99.90;;;;;;5093241;28;20016;-45
2022/01/07 08:34:54;;;;;;;29.58;17.02;;;1.60;99.90;;;;;;5093915;28;20587;-47
2022/01/07 08:37:22;;;;;;;37.92;16.98;;;1.60;99.90;;;;;;5094350;28;20474;-45
2022/01/07 08:39:48;;;;;;;34.03;16.40;;;1.70;99.90;;;;;;5075548;28;20059;-44
2022/01/07 08:42:13;;;;;;;28.63;17.08;;;1.70;99.90;;;;;;5094228;28;20074;-44
2022/01/07 08:44:39;;;;;;;33.67;16.90;;;1.60;99.90;;;;;;5093777;28;20024;-43
2022/01/07 08:47:05;;;;;;;34.60;17.90;;;1.60;99.90;;;;;;5093631;28;20403;-47
2022/01/07 08:49:30;;;;;;;27.10;16.67;;;1.70;99.90;;;;;;5092966;28;20165;-49
2022/01/07 08:51:56;;;;;;;31.30;15.75;;;1.70;99.90;;;;;;5084998;28;20040;-46
2022/01/07 08:54:22;;;;;;;30.58;16.90;;;1.70;99.90;;;;;;5073442;28;20016;-45
2022/01/07 08:56:48;;;;;;;24.83;16.00;;;1.80;99.90;;;;;;5083190;28;20024;-47
2022/01/07 08:59:13;;;;;;;30.25;16.50;;;1.80;99.90;;;;;;5092597;28;20402;-44
2022/01/07 09:01:39;;;;;;;25.30;14.90;;;1.80;99.90;;;;;;5093158;28;20107;-49
2022/01/07 09:04:04;;;;;;;31.90;17.55;;;1.70;99.90;;;;;;5091957;28;20027;-47
2022/01/07 09:06:30;;;;;;;30.25;16.35;;;1.70;99.90;;;;;;5093398;28;20028;-48
2022/01/07 09:08:55;;;;;;;27.33;15.35;;;1.80;99.90;;;;;;5093155;28;20054;-47
2022/01/07 09:11:21;;;;;;;33.88;18.08;;;1.80;99.90;;;;;;5093359;28;20024;-47
2022/01/07 09:13:48;;;;;;;31.13;17.27;;;1.70;99.90;;;;;;5093230;28;20046;-45
2022/01/07 09:16:14;;;;;;;24.30;15.60;;;1.70;99.90;;;;;;5092326;28;20100;-44
2022/01/07 09:18:39;;;;;;;26.98;15.85;;;1.70;99.90;;;;;;5092867;28;20107;-49
2022/01/07 09:21:05;;;;;;;27.80;15.52;;;1.70;99.90;;;;;;5091955;28;20027;-47
2022/01/07 09:23:30;;;;;;;33.17;17.13;;;1.70;99.90;;;;;;5091858;28;20385;-48
2022/01/07 09:25:56;;;;;;;31.00;15.88;;;1.80;99.90;;;;;;5092229;28;20043;-45
2022/01/07 09:28:21;;;;;;;31.70;19.25;;;1.80;99.90;;;;;;5092245;28;20036;-45
2022/01/07 09:30:47;;;;;;;29.73;16.83;;;1.80;99.90;;;;;;5091346;28;20047;-47
2022/01/07 09:33:12;;;;;;;35.10;17.55;;;1.80;99.90;;;;;;5093256;28;20054;-52
2022/01/07 09:35:38;;;;;;;27.80;17.15;;;1.70;99.90;;;;;;5092817;28;20031;-49
2022/01/07 09:38:05;;;;;;;27.73;16.63;;;1.70;99.90;;;;;;5092856;28;20050;-47
2022/01/07 09:40:30;;;;;;;33.13;17.02;;;1.70;99.90;;;;;;5092659;28;20020;-46
2022/01/07 09:43:02;;;;;;;30.80;17.35;;;1.70;99.90;;;;;;5093064;28;20036;-48
2022/01/07 09:45:29;;;;;;;29.33;17.33;;;1.70;99.90;;;;;;5091659;28;20475;-47
2022/01/07 09:47:55;;;;;;;29.73;16.70;;;1.60;99.90;;;;;;5092402;28;20070;-45
2022/01/07 09:50:22;;;;;;;25.58;17.15;;;1.60;99.90;;;;;;5092532;28;20099;-48
2022/01/07 09:52:48;;;;;;;31.90;17.33;;;1.60;99.90;;;;;;5092716;28;20024;-50
2022/01/07 09:55:14;;;;;;;32.10;17.17;;;1.70;99.90;;;;;;5092329;28;20077;-45
2022/01/07 09:57:39;;;;;;;28.92;17.02;;;1.70;99.90;;;;;;5092318;28;20020;-48
2022/01/07 10:00:08;;;;;;;26.13;15.75;;;1.60;99.90;;;;;;5092428;28;20024;-48
2022/01/07 10:02:33;;;;;;;32.33;16.17;;;1.70;99.90;;;;;;5092561;28;20233;-46
2022/01/07 10:05:17;;;;;;;42.20;23.27;;;1.70;99.90;;;;;;5092853;28;20496;-47
2022/01/07 10:07:43;;;;;;;23.10;15.38;;;1.80;99.90;;;;;;5092534;28;20538;-48
2022/01/07 10:10:14;;;;;;;26.35;16.20;;;1.80;99.90;;;;;;5092363;28;20028;-44
2022/01/07 10:13:04;;;;;;;29.23;16.98;;;1.80;99.90;;;;;;5092666;28;20016;-48
2022/01/07 10:15:32;;;;;;;25.45;16.20;;;1.80;99.90;;;;;;5092360;28;20020;-47
2022/01/07 10:18:07;;;;;;;31.27;17.85;;;1.80;99.90;;;;;;5092053;28;20055;-46
2022/01/07 10:20:44;;;;;;;28.85;17.67;;;1.80;99.90;;;;;;5091904;28;20381;-49
2022/01/07 10:23:24;;;;;;;29.67;18.38;;;1.70;99.90;;;;;;5092091;28;20024;-46
2022/01/07 10:25:54;;;;;;;36.58;18.95;;;1.70;99.90;;;;;;5091989;28;20465;-46
2022/01/07 10:28:27;;;;;;;31.90;17.65;;;1.80;99.90;;;;;;5074164;28;20116;-47
2022/01/07 10:30:59;;;;;;;31.05;18.50;;;1.80;99.90;;;;;;5092390;28;20030;-46
2022/01/07 10:33:24;;;;;;;28.20;17.42;;;1.90;99.90;;;;;;5092316;28;20047;-46
2022/01/07 10:36:06;;;;;;;27.52;17.48;;;2.00;99.90;;;;;;5092299;28;20032;-45
2022/01/07 10:38:34;;;;;;;26.58;17.40;;;2.00;99.90;;;;;;5092554;28;20028;-48
2022/01/07 10:41:01;;;;;;;24.75;16.73;;;2.00;99.90;;;;;;5092343;28;20107;-49
2022/01/07 10:43:34;;;;;;;29.92;16.88;;;2.00;99.90;;;;;;5093069;28;20126;-46
2022/01/07 10:46:11;;;;;;;28.38;16.30;;;2.00;99.90;;;;;;5093720;28;20511;-48
2022/01/07 10:48:47;;;;;;;30.02;16.13;;;2.10;99.90;;;;;;5092526;28;20436;-47
2022/01/07 10:51:22;;;;;;;25.38;15.65;;;2.10;99.90;;;;;;5092590;28;20388;-48
2022/01/07 10:53:52;;;;;;;26.00;15.35;;;2.10;99.90;;;;;;5074423;28;20051;-46
2022/01/07 10:56:20;;;;;;;30.98;14.90;;;2.20;99.90;;;;;;5092104;28;20039;-45
2022/01/07 10:58:45;;;;;;;28.08;14.07;;;2.10;99.90;;;;;;5094491;28;20035;-47
2022/01/07 11:01:20;;;;;;;25.50;14.15;;;2.20;99.90;;;;;;5095937;28;20036;-47
2022/01/07 11:03:50;;;;;;;26.40;15.23;;;2.20;99.90;;;;;;5083852;28;20039;-45
2022/01/07 11:06:16;;;;;;;29.55;15.85;;;2.20;99.90;;;;;;5090277;28;20032;-47
2022/01/07 11:08:42;;;;;;;22.17;14.45;;;2.30;99.90;;;;;;5084712;28;20035;-47
2022/01/07 11:11:08;;;;;;;27.27;14.68;;;2.20;99.90;;;;;;5082395;28;20020;-46
2022/01/07 11:13:35;;;;;;;23.33;14.10;;;2.30;99.90;;;;;;5074545;28;20264;-45
2022/01/07 11:16:05;;;;;;;25.80;14.85;;;2.30;99.90;;;;;;5082877;28;20032;-53
2022/01/07 11:18:31;;;;;;;29.25;14.93;;;2.30;99.90;;;;;;5080590;28;20059;-45
2022/01/07 11:20:59;;;;;;;24.25;14.68;;;2.30;99.90;;;;;;5078573;28;20075;-45
2022/01/07 11:23:25;;;;;;;24.98;14.90;;;2.30;99.90;;;;;;5091843;28;20016;-48
2022/01/07 11:26:08;;;;;;;22.75;13.48;;;2.30;99.90;;;;;;5082066;28;20039;-43
2022/01/07 11:28:35;;;;;;;25.92;14.82;;;2.30;99.90;;;;;;5068203;28;20031;-47
2022/01/07 11:31:10;;;;;;;33.45;14.75;;;2.40;99.90;;;;;;5080120;28;20024;-50
2022/01/07 11:33:36;;;;;;;;;;;2.40;99.90;;;;;;5082429;28;20025;-46
2022/01/07 11:36:02;;;;;;;;;;;2.40;99.90;;;;;;5088144;28;19912;-48
2022/01/07 11:38:32;;;;;;;19.52;12.20;;;2.40;99.90;;;;;;5088433;28;19957;-53
2022/01/07 11:40:58;;;;;;;26.55;13.40;;;2.40;99.90;;;;;;5085603;28;20024;-46
2022/01/07 11:43:31;;;;;;;22.85;13.38;;;2.40;99.90;;;;;;5086055;28;20088;-51
2022/01/07 11:45:58;;;;;;;22.83;13.05;;;2.30;99.90;;;;;;5082891;28;20031;-50
2022/01/07 11:48:30;;;;;;;24.92;13.80;;;2.40;99.90;;;;;;5085371;28;20027;-47
2022/01/07 11:50:55;;;;;;;19.77;12.75;;;2.40;99.90;;;;;;5082563;28;20027;-47
2022/01/07 11:53:22;;;;;;;18.90;11.77;;;2.40;99.90;;;;;;5066873;28;20017;-47
2022/01/07 11:55:47;;;;;;;30.67;14.10;;;2.40;99.90;;;;;;5078719;28;20034;-48
2022/01/07 11:58:14;;;;;;;19.50;12.40;;;2.40;99.90;;;;;;5078175;28;20055;-45
2022/01/07 12:01:00;;;;;;;16.90;12.73;;;2.40;99.90;;;;;;5080673;28;20028;-42
2022/01/07 12:03:40;;;;;;;;;;;2.50;99.90;;;;;;5065193;28;20021;-46
2022/01/07 12:06:20;;;;;;;26.42;11.73;;;2.60;99.90;;;;;;5085628;28;19912;-49
2022/01/07 12:09:19;;;;;;;22.20;12.00;;;2.50;99.90;;;;;;5062984;28;20048;-49
2022/01/07 12:12:08;;;;;;;23.88;11.35;;;2.50;99.90;;;;;;5089670;28;20103;-46
2022/01/07 12:14:42;;;;;;;23.17;11.38;;;2.60;99.90;;;;;;5081849;28;20812;-48
2022/01/07 12:17:13;;;;;;;19.42;11.43;;;2.70;99.90;;;;;;5081309;28;20074;-49
2022/01/07 12:20:22;;;;;;;17.25;11.18;;;2.70;99.90;;;;;;5078553;28;20027;-45
2022/01/07 12:22:48;;;;;;;18.88;11.23;;;2.70;99.90;;;;;;5075295;28;20032;-46
2022/01/07 12:25:14;;;;;;;15.30;10.00;;;2.80;99.90;;;;;;5077500;28;20036;-47
2022/01/07 12:27:39;;;;;;;19.83;10.68;;;2.80;99.90;;;;;;5080211;28;20032;-46
2022/01/07 12:30:05;;;;;;;18.02;11.05;;;2.80;99.90;;;;;;5081236;28;20035;-47
2022/01/07 12:32:35;;;;;;;15.40;10.35;;;2.80;99.90;;;;;;5083105;28;20411;-45
2022/01/07 12:35:04;;;;;;;15.48;10.80;;;2.80;99.90;;;;;;5088098;28;20107;-45
2022/01/07 12:37:30;;;;;;;17.48;10.27;;;2.80;99.90;;;;;;5087530;28;20046;-45
2022/01/07 12:40:02;;;;;;;18.75;11.60;;;2.80;99.90;;;;;;5082766;28;20078;-44
2022/01/07 12:42:30;;;;;;;21.10;10.55;;;2.80;99.90;;;;;;5081826;28;20036;-45
2022/01/07 12:44:57;;;;;;;20.30;10.75;;;2.70;99.90;;;;;;5068746;28;20032;-46
2022/01/07 12:47:30;;;;;;;21.60;11.18;;;2.80;99.90;;;;;;5087523;28;20514;-45
2022/01/07 12:49:58;;;;;;;20.08;11.50;;;2.80;99.90;;;;;;5075153;28;20043;-42